createdAt,value
2018-12-10T00:01:12.308Z,21.07
2018-12-10T00:03:41.370Z,23.47
2018-12-10T00:06:10.426Z,20.07
2018-12-10T00:08:39.518Z,21.97
2018-12-10T00:11:08.573Z,24.83
2018-12-10T00:13:37.632Z,21.07
2018-12-10T00:16:06.732Z,18.10
2018-12-10T00:18:35.777Z,15.60
2018-12-10T00:21:04.847Z,15.27
2018-12-10T00:23:33.922Z,18.67
2018-12-10T00:26:02.972Z,18.63
2018-12-10T00:28:32.033Z,15.67
2018-12-10T00:31:01.133Z,15.57
2018-12-10T00:33:30.207Z,14.00
2018-12-10T00:35:59.258Z,15.47
2018-12-10T00:38:28.338Z,18.23
2018-12-10T00:40:57.382Z,16.73
2018-12-10T00:43:26.435Z,15.90
2018-12-10T00:45:55.509Z,13.93
2018-12-10T00:48:24.568Z,13.70
2018-12-10T00:50:53.618Z,16.33
2018-12-10T00:53:22.778Z,14.47
2018-12-10T00:55:51.827Z,14.73
2018-12-10T00:58:20.877Z,14.00
2018-12-10T01:00:49.969Z,14.40
2018-12-10T01:03:19.027Z,14.40
2018-12-10T01:05:48.076Z,13.67
2018-12-10T01:08:17.165Z,11.97
2018-12-10T01:10:46.228Z,11.50
2018-12-10T01:13:15.281Z,12.33
2018-12-10T01:15:44.354Z,10.67
2018-12-10T01:18:13.401Z,11.07
2018-12-10T01:20:42.462Z,10.60
2018-12-10T01:23:11.567Z,9.90
2018-12-10T01:25:40.613Z,9.87
2018-12-10T01:28:09.661Z,9.10
2018-12-10T01:30:39.019Z,9.83
2018-12-10T01:33:08.051Z,9.90
2018-12-10T01:35:37.101Z,9.90
2018-12-10T01:38:06.176Z,9.93
2018-12-10T01:40:35.212Z,9.57
2018-12-10T01:43:04.258Z,8.87
2018-12-10T01:45:34.448Z,9.13
2018-12-10T01:48:03.489Z,8.57
2018-12-10T01:50:32.532Z,8.90
2018-12-10T01:53:01.610Z,8.57
2018-12-10T01:55:30.646Z,8.80
2018-12-10T01:57:59.691Z,8.17
2018-12-10T02:00:28.756Z,9.30
2018-12-10T02:02:57.806Z,10.03
2018-12-10T02:05:39.672Z,11.53
2018-12-10T02:08:08.719Z,10.73
2018-12-10T02:10:37.761Z,8.70
2018-12-10T02:13:06.846Z,10.50
2018-12-10T02:15:35.899Z,7.67
2018-12-10T02:18:04.938Z,3.70
2018-12-10T02:20:33.999Z,3.13
2018-12-10T02:23:03.034Z,3.27
2018-12-10T02:25:32.071Z,3.03
2018-12-10T02:28:01.144Z,3.17
2018-12-10T02:30:30.180Z,3.23
2018-12-10T02:32:59.226Z,3.77
2018-12-10T02:35:28.326Z,2.97
2018-12-10T02:37:57.361Z,2.73
2018-12-10T02:40:26.395Z,3.13
2018-12-10T02:42:55.463Z,2.10
2018-12-10T02:45:24.505Z,1.67
2018-12-10T02:47:53.542Z,1.67
2018-12-10T02:50:22.624Z,1.67
2018-12-10T02:52:51.657Z,2.07
2018-12-10T02:55:20.691Z,2.10
2018-12-10T02:57:49.740Z,2.57
2018-12-10T03:00:18.792Z,2.60
2018-12-10T03:02:47.819Z,2.40
2018-12-10T03:05:16.867Z,2.13
2018-12-10T03:07:45.905Z,2.13
2018-12-10T03:10:14.957Z,2.40
2018-12-10T03:12:44.047Z,2.30
2018-12-10T03:15:13.088Z,3.17
2018-12-10T03:17:42.125Z,1.97
2018-12-10T03:20:11.189Z,2.60
2018-12-10T03:22:40.224Z,2.37
2018-12-10T03:25:09.252Z,2.17
2018-12-10T03:27:38.309Z,2.20
2018-12-10T03:30:07.336Z,2.30
2018-12-10T03:32:36.379Z,2.57
2018-12-10T03:35:05.457Z,1.90
2018-12-10T03:37:34.476Z,2.10
2018-12-10T03:40:03.511Z,2.63
2018-12-10T03:42:32.573Z,1.80
2018-12-10T03:45:01.603Z,1.60
2018-12-10T03:47:30.645Z,1.50
2018-12-10T03:49:59.698Z,1.50
2018-12-10T03:52:28.728Z,1.83
2018-12-10T03:54:57.772Z,3.33
2018-12-10T03:57:26.867Z,4.47
2018-12-10T03:59:55.913Z,11.40
2018-12-10T04:02:24.952Z,7.77
2018-12-10T04:04:54.029Z,21.33
2018-12-10T04:07:23.082Z,11.83
2018-12-10T04:09:52.133Z,6.10
2018-12-10T04:12:21.205Z,3.63
2018-12-10T04:14:50.247Z,3.90
2018-12-10T04:17:19.284Z,2.43
2018-12-10T04:19:48.371Z,2.40
2018-12-10T04:22:17.411Z,2.50
2018-12-10T04:24:46.448Z,2.10
2018-12-10T04:27:15.513Z,2.67
2018-12-10T04:29:44.541Z,3.23
2018-12-10T04:32:13.571Z,2.90
2018-12-10T04:34:42.634Z,3.87
2018-12-10T04:37:11.658Z,5.53
2018-12-10T04:39:40.696Z,7.50
2018-12-10T04:42:09.788Z,7.37
2018-12-10T04:44:38.830Z,7.23
2018-12-10T04:47:07.937Z,6.10
2018-12-10T04:49:36.999Z,5.23
2018-12-10T04:52:06.053Z,6.70
2018-12-10T04:54:35.097Z,9.40
2018-12-10T04:57:04.165Z,6.40
2018-12-10T04:59:33.204Z,7.77
2018-12-10T05:02:02.238Z,9.67
2018-12-10T05:04:31.347Z,9.57
2018-12-10T05:07:00.392Z,7.40
2018-12-10T05:09:29.426Z,5.43
2018-12-10T05:11:58.495Z,6.13
2018-12-10T05:14:27.532Z,4.57
2018-12-10T05:16:56.557Z,5.80
2018-12-10T05:19:25.624Z,5.57
2018-12-10T05:21:54.668Z,8.43
2018-12-10T05:24:23.699Z,8.50
2018-12-10T05:26:52.900Z,6.73
2018-12-10T05:29:21.939Z,6.90
2018-12-10T05:31:50.983Z,7.40
2018-12-10T05:34:20.068Z,7.77
2018-12-10T05:36:49.111Z,7.50
2018-12-10T05:39:18.150Z,9.37
2018-12-10T05:41:47.232Z,14.63
2018-12-10T05:44:16.306Z,12.83
2018-12-10T05:46:45.365Z,10.07
2018-12-10T05:49:14.448Z,9.70
2018-12-10T05:51:43.495Z,10.13
2018-12-10T05:54:12.542Z,9.80
2018-12-10T05:56:41.617Z,10.37
2018-12-10T05:59:10.672Z,11.00
2018-12-10T06:01:39.708Z,9.67
2018-12-10T06:04:08.783Z,11.40
2018-12-10T06:06:37.827Z,11.57
2018-12-10T06:09:06.884Z,11.27
2018-12-10T06:11:35.988Z,10.00
2018-12-10T06:14:05.038Z,9.47
2018-12-10T06:16:34.080Z,7.90
2018-12-10T06:19:03.149Z,7.87
2018-12-10T06:21:32.189Z,8.23
2018-12-10T06:24:01.232Z,8.47
2018-12-10T06:26:30.304Z,9.20
2018-12-10T06:28:59.346Z,9.03
2018-12-10T06:31:28.386Z,9.73
2018-12-10T06:33:57.472Z,8.73
2018-12-10T06:36:26.511Z,9.70
2018-12-10T06:38:55.554Z,10.00
2018-12-10T06:41:24.633Z,10.67
2018-12-10T06:43:53.679Z,10.97
2018-12-10T06:46:22.721Z,10.47
2018-12-10T06:48:51.810Z,11.83
2018-12-10T06:51:20.860Z,11.87
2018-12-10T06:53:49.917Z,11.40
2018-12-10T06:56:19.010Z,10.43
2018-12-10T06:58:48.059Z,9.87
2018-12-10T07:01:17.104Z,10.47
2018-12-10T07:03:46.179Z,10.47
2018-12-10T07:06:15.232Z,12.07
2018-12-10T07:08:44.294Z,14.03
2018-12-10T07:11:13.370Z,14.50
2018-12-10T07:13:42.428Z,14.53
2018-12-10T07:16:12.505Z,12.47
2018-12-10T07:18:41.592Z,11.80
2018-12-10T07:21:10.648Z,13.60
2018-12-10T07:23:39.723Z,11.73
2018-12-10T07:26:08.809Z,11.37
2018-12-10T07:28:38.052Z,11.17
2018-12-10T07:31:06.912Z,13.00
2018-12-10T07:33:36.062Z,13.27
2018-12-10T07:36:05.104Z,13.57
2018-12-10T07:38:34.146Z,14.20
2018-12-10T07:41:03.236Z,20.70
2018-12-10T07:43:32.285Z,17.53
2018-12-10T07:46:01.336Z,16.07
2018-12-10T07:48:30.409Z,15.27
2018-12-10T07:50:59.465Z,15.43
2018-12-10T07:53:28.529Z,15.43
2018-12-10T07:55:57.603Z,14.47
2018-12-10T07:58:26.655Z,13.53
2018-12-10T08:00:55.705Z,13.90
2018-12-10T08:03:24.802Z,14.50
2018-12-10T08:05:53.850Z,16.43
2018-12-10T08:08:22.886Z,16.50
2018-12-10T08:10:51.959Z,17.60
2018-12-10T08:13:21.009Z,17.87
2018-12-10T08:15:50.054Z,15.93
2018-12-10T08:18:19.137Z,16.13
2018-12-10T08:20:48.187Z,15.77
2018-12-10T08:23:17.255Z,14.87
2018-12-10T08:26:05.119Z,13.37
2018-12-10T08:28:34.161Z,12.23
2018-12-10T08:31:03.579Z,12.37
2018-12-10T08:33:32.308Z,12.80
2018-12-10T08:36:01.356Z,13.30
2018-12-10T08:38:30.417Z,14.13
2018-12-10T08:40:59.481Z,16.20
2018-12-10T08:43:28.526Z,16.40
2018-12-10T08:45:57.574Z,14.97
2018-12-10T08:48:26.783Z,13.00
2018-12-10T08:50:55.837Z,12.30
2018-12-10T08:53:24.888Z,14.70
2018-12-10T08:55:53.955Z,15.87
2018-12-10T08:58:23.009Z,16.43
2018-12-10T09:00:52.091Z,15.03
2018-12-10T09:03:21.163Z,12.27
2018-12-10T09:05:50.213Z,12.33
2018-12-10T09:08:19.308Z,11.03
2018-12-10T09:10:48.424Z,10.00
2018-12-10T09:13:17.466Z,9.07
2018-12-10T09:15:46.513Z,8.87
2018-12-10T09:18:15.575Z,8.47
2018-12-10T09:20:44.623Z,10.53
2018-12-10T09:23:13.665Z,9.27
2018-12-10T09:25:42.745Z,8.20
2018-12-10T09:28:19.311Z,8.23
2018-12-10T09:30:40.816Z,6.20
2018-12-10T09:33:09.907Z,6.47
2018-12-10T09:35:38.944Z,6.53
2018-12-10T09:38:07.996Z,6.67
2018-12-10T09:40:37.069Z,9.10
2018-12-10T09:43:06.107Z,9.93
2018-12-10T09:45:35.145Z,8.20
2018-12-10T09:48:04.218Z,7.33
2018-12-10T09:50:33.267Z,8.17
2018-12-10T09:53:02.325Z,7.70
2018-12-10T09:55:43.771Z,7.30
2018-12-10T09:58:12.810Z,7.20
2018-12-10T10:00:41.856Z,8.30
2018-12-10T10:03:10.948Z,8.70
2018-12-10T10:05:39.981Z,6.80
2018-12-10T10:08:09.028Z,4.20
2018-12-10T10:10:38.108Z,3.17
2018-12-10T10:13:07.156Z,4.93
2018-12-10T10:15:36.207Z,3.73
2018-12-10T10:18:05.309Z,4.13
2018-12-10T10:20:34.355Z,27.60
2018-12-10T10:23:03.415Z,39.67
2018-12-10T10:25:47.232Z,4.83
2018-12-10T10:28:16.173Z,4.27
2018-12-10T10:30:45.211Z,3.83
2018-12-10T10:33:14.325Z,6.30
2018-12-10T10:35:43.365Z,4.53
2018-12-10T10:38:12.412Z,8.70
2018-12-10T10:40:41.506Z,11.50
2018-12-10T10:43:10.557Z,19.17
2018-12-10T10:45:42.763Z,13.40
2018-12-10T10:48:11.828Z,14.53
2018-12-10T10:50:40.870Z,11.80
2018-12-10T10:53:09.971Z,9.40
2018-12-10T10:55:39.014Z,7.40
2018-12-10T10:58:08.153Z,7.60
2018-12-10T11:00:42.742Z,6.47
2018-12-10T11:03:17.429Z,7.73
2018-12-10T11:05:51.423Z,5.87
2018-12-10T11:08:20.461Z,5.80
2018-12-10T11:10:49.503Z,6.60
2018-12-10T11:13:18.605Z,6.60
2018-12-10T11:15:47.637Z,6.23
2018-12-10T11:18:16.688Z,8.33
2018-12-10T11:20:45.754Z,7.57
2018-12-10T11:23:14.800Z,5.80
2018-12-10T11:25:43.852Z,5.90
2018-12-10T11:28:12.930Z,5.80
2018-12-10T11:30:41.987Z,6.50
2018-12-10T11:33:11.026Z,6.77
2018-12-10T11:35:40.153Z,6.73
2018-12-10T11:38:09.212Z,6.37
2018-12-10T11:40:38.253Z,5.00
2018-12-10T11:43:07.327Z,5.40
2018-12-10T11:45:36.375Z,6.23
2018-12-10T11:48:05.421Z,4.80
2018-12-10T11:50:34.497Z,4.40
2018-12-10T11:53:03.544Z,4.43
2018-12-10T11:55:32.599Z,4.93
2018-12-10T11:58:01.716Z,5.90
2018-12-10T12:00:30.777Z,5.40
2018-12-10T12:02:59.832Z,7.07
2018-12-10T12:05:32.670Z,6.73
2018-12-10T12:08:01.734Z,6.73
2018-12-10T12:10:30.800Z,7.57
2018-12-10T12:13:00.144Z,7.87
2018-12-10T12:15:29.183Z,6.00
2018-12-10T12:17:58.289Z,6.47
2018-12-10T12:20:27.461Z,6.13
2018-12-10T12:22:56.511Z,5.40
2018-12-10T12:25:25.552Z,6.23
2018-12-10T12:27:54.628Z,8.33
2018-12-10T12:30:23.677Z,7.10
2018-12-10T12:32:52.726Z,6.47
2018-12-10T12:35:21.806Z,5.87
2018-12-10T12:37:50.858Z,8.63
2018-12-10T12:40:19.920Z,10.50
2018-12-10T12:42:49.015Z,6.73
2018-12-10T12:45:18.063Z,7.37
2018-12-10T12:47:47.121Z,8.40
2018-12-10T12:50:16.204Z,5.13
2018-12-10T12:52:45.254Z,8.37
2018-12-10T12:55:14.299Z,3.93
2018-12-10T12:57:43.373Z,5.67
2018-12-10T13:00:12.430Z,2.80
2018-12-10T13:02:41.472Z,3.10
2018-12-10T13:05:10.570Z,3.50
2018-12-10T13:07:39.628Z,7.00
2018-12-10T13:10:08.677Z,4.07
2018-12-10T13:12:37.740Z,5.17
2018-12-10T13:15:06.785Z,3.63
2018-12-10T13:17:35.844Z,4.50
2018-12-10T13:20:04.913Z,4.73
2018-12-10T13:22:33.961Z,5.77
2018-12-10T13:25:03.025Z,7.43
2018-12-10T13:27:32.129Z,9.00
2018-12-10T13:30:01.190Z,11.67
2018-12-10T13:32:30.245Z,16.00
2018-12-10T13:34:59.338Z,17.57
2018-12-10T13:37:28.396Z,16.90
2018-12-10T13:39:57.448Z,17.73
2018-12-10T13:42:26.542Z,18.80
2018-12-10T13:44:55.604Z,22.83
2018-12-10T13:47:24.657Z,28.90
2018-12-10T13:49:53.751Z,33.53
2018-12-10T13:52:22.811Z,29.80
2018-12-10T13:54:51.873Z,24.80
2018-12-10T13:57:20.953Z,21.90
2018-12-10T13:59:50.005Z,22.10
2018-12-10T14:02:19.060Z,20.07
2018-12-10T14:04:48.152Z,19.63
2018-12-10T14:07:17.238Z,20.03
2018-12-10T14:09:46.264Z,20.30
2018-12-10T14:12:15.387Z,17.63
2018-12-10T14:14:44.447Z,20.97
2018-12-10T14:17:13.506Z,22.27
2018-12-10T14:19:42.601Z,23.53
2018-12-10T14:22:11.669Z,24.33
2018-12-10T14:24:40.728Z,23.17
2018-12-10T14:27:09.813Z,28.60
2018-12-10T14:29:38.873Z,52.30
2018-12-10T14:32:07.952Z,63.07
2018-12-10T14:34:37.071Z,45.93
2018-12-10T14:37:06.120Z,88.03
2018-12-10T14:39:35.194Z,100.27
2018-12-10T14:42:04.282Z,69.87
2018-12-10T14:44:33.345Z,33.83
2018-12-10T14:47:02.401Z,26.83
2018-12-10T14:49:31.489Z,25.63
2018-12-10T14:52:00.541Z,24.93
2018-12-10T14:54:29.612Z,20.43
2018-12-10T14:56:58.738Z,22.70
2018-12-10T14:59:27.794Z,26.30
2018-12-10T15:01:56.856Z,49.13
2018-12-10T15:04:25.937Z,28.33
2018-12-10T15:06:55.035Z,18.63
2018-12-10T15:09:24.048Z,21.90
2018-12-10T15:11:53.126Z,25.97
2018-12-10T15:14:22.180Z,27.53
2018-12-10T15:16:51.248Z,32.93
2018-12-10T15:19:20.784Z,43.73
2018-12-10T15:21:49.848Z,49.60
2018-12-10T15:24:18.892Z,39.67
2018-12-10T15:26:47.977Z,26.47
2018-12-10T15:29:17.031Z,31.57
2018-12-10T15:31:46.101Z,26.03
2018-12-10T15:34:15.191Z,24.90
2018-12-10T15:36:44.255Z,36.13
2018-12-10T15:39:13.311Z,49.43
2018-12-10T15:41:42.412Z,51.30
2018-12-10T15:44:11.473Z,33.90
2018-12-10T15:46:40.528Z,24.70
2018-12-10T15:49:09.628Z,23.67
2018-12-10T15:51:38.688Z,21.03
2018-12-10T15:54:07.739Z,21.17
2018-12-10T15:56:36.844Z,20.20
2018-12-10T15:59:05.897Z,18.03
2018-12-10T16:01:34.961Z,25.50
2018-12-10T16:04:04.798Z,29.80
2018-12-10T16:06:35.776Z,28.50
2018-12-10T16:09:04.871Z,26.30
2018-12-10T16:11:36.590Z,34.03
2018-12-10T16:14:06.801Z,34.10
2018-12-10T16:16:35.542Z,31.47
2018-12-10T16:19:04.754Z,18.43
2018-12-10T16:21:33.905Z,27.87
2018-12-10T16:24:03.092Z,16.10
2018-12-10T16:26:32.305Z,16.73
2018-12-10T16:29:01.363Z,20.20
2018-12-10T16:31:30.519Z,20.03
2018-12-10T16:34:00.007Z,18.93
2018-12-10T16:36:29.329Z,18.57
2018-12-10T16:39:02.455Z,24.20
2018-12-10T16:41:32.435Z,28.83
2018-12-10T16:44:02.875Z,17.70
2018-12-10T16:46:34.021Z,18.93
2018-12-10T16:49:03.042Z,31.83
2018-12-10T16:51:32.113Z,24.17
2018-12-10T16:54:01.187Z,32.63
2018-12-10T16:56:30.247Z,27.70
2018-12-10T16:58:59.322Z,12.80
2018-12-10T17:01:28.715Z,9.93
2018-12-10T17:03:57.776Z,12.37
2018-12-10T17:06:26.856Z,21.60
2018-12-10T17:08:56.101Z,24.20
2018-12-10T17:11:25.335Z,34.67
2018-12-10T17:13:54.390Z,23.30
2018-12-10T17:16:23.478Z,18.70
2018-12-10T17:18:52.544Z,17.30
2018-12-10T17:21:21.602Z,20.93
2018-12-10T17:23:50.699Z,27.13
2018-12-10T17:26:19.759Z,33.63
2018-12-10T17:28:48.817Z,34.23
2018-12-10T17:31:17.969Z,39.27
2018-12-10T17:33:47.013Z,40.53
2018-12-10T17:39:17.417Z,40.27
2018-12-10T17:41:46.512Z,38.80
2018-12-10T17:44:15.615Z,35.80
2018-12-10T17:46:44.621Z,40.93
2018-12-10T17:49:13.754Z,38.10
2018-12-10T17:51:42.812Z,34.70
2018-12-10T17:54:11.871Z,30.17
2018-12-10T17:56:40.966Z,25.93
2018-12-10T17:59:10.012Z,39.97
2018-12-10T18:01:39.062Z,73.30
2018-12-10T18:04:08.171Z,115.00
2018-12-10T18:06:37.278Z,57.67
2018-12-10T18:09:06.343Z,68.63
2018-12-10T18:11:35.457Z,60.07
2018-12-10T18:14:04.509Z,34.23
2018-12-10T18:16:33.563Z,25.47
2018-12-10T18:19:02.671Z,24.37
2018-12-10T18:21:31.725Z,40.47
2018-12-10T18:24:00.785Z,44.10
2018-12-10T18:26:29.866Z,21.07
2018-12-10T18:28:58.938Z,20.43
2018-12-10T18:31:27.989Z,21.07
2018-12-10T18:33:57.095Z,20.60
2018-12-10T18:36:26.153Z,29.53
2018-12-10T18:38:55.201Z,27.73
2018-12-10T18:41:24.280Z,33.47
2018-12-10T18:43:53.325Z,24.13
2018-12-10T18:46:22.388Z,19.87
2018-12-10T18:48:51.476Z,21.13
2018-12-10T18:51:20.532Z,26.73
2018-12-10T18:53:49.678Z,31.03
2018-12-10T18:56:31.728Z,33.80
2018-12-10T18:59:00.792Z,42.77
2018-12-10T19:01:29.869Z,33.93
2018-12-10T19:03:58.959Z,34.60
2018-12-10T19:06:28.024Z,33.13
2018-12-10T19:08:57.083Z,29.93
2018-12-10T19:11:26.196Z,28.47
2018-12-10T19:13:55.616Z,34.13
2018-12-10T19:16:24.721Z,24.40
2018-12-10T19:19:13.011Z,49.90
2018-12-10T19:24:33.106Z,66.07
2018-12-10T19:27:02.198Z,98.87
2018-12-10T19:29:31.282Z,26.63
2018-12-10T19:32:00.462Z,36.03
2018-12-10T19:34:29.556Z,35.07
2018-12-10T19:36:58.630Z,37.17
2018-12-10T19:39:27.785Z,27.60
2018-12-10T19:41:56.840Z,30.70
2018-12-10T19:44:25.911Z,23.67
2018-12-10T19:46:55.002Z,30.60
2018-12-10T19:49:24.053Z,23.30
2018-12-10T19:51:53.116Z,24.80
2018-12-10T19:54:22.204Z,15.67
2018-12-10T19:56:51.312Z,14.33
2018-12-10T19:59:20.375Z,13.67
2018-12-10T20:01:49.498Z,19.80
2018-12-10T20:04:18.558Z,21.87
2018-12-10T20:06:53.117Z,26.37
2018-12-10T20:09:22.181Z,17.97
2018-12-10T20:11:51.252Z,15.83
2018-12-10T20:14:20.330Z,11.83
2018-12-10T20:16:49.381Z,20.57
2018-12-10T20:19:18.434Z,21.50
2018-12-10T20:21:47.575Z,20.47
2018-12-10T20:24:16.647Z,28.60
2018-12-10T20:26:45.709Z,20.53
2018-12-10T20:29:14.798Z,18.10
2018-12-10T20:31:43.879Z,20.33
2018-12-10T20:34:12.915Z,10.57
2018-12-10T20:36:42.059Z,11.93
2018-12-10T20:39:11.092Z,13.23
2018-12-10T20:41:40.162Z,12.10
2018-12-10T20:44:09.292Z,11.40
2018-12-10T20:46:38.336Z,9.43
2018-12-10T20:49:07.378Z,7.63
2018-12-10T20:51:36.451Z,7.30
2018-12-10T20:54:05.497Z,8.57
2018-12-10T20:56:34.530Z,5.67
2018-12-10T20:59:03.609Z,6.73
2018-12-10T21:01:32.662Z,6.43
2018-12-10T21:04:01.711Z,6.03
2018-12-10T21:06:34.895Z,6.70
2018-12-10T21:09:03.933Z,6.63
2018-12-10T21:11:32.971Z,5.70
2018-12-10T21:14:02.051Z,5.17
2018-12-10T21:16:31.098Z,5.23
2018-12-10T21:19:00.153Z,6.17
2018-12-10T21:21:29.228Z,5.50
2018-12-10T21:23:58.292Z,6.00
2018-12-10T21:26:27.352Z,5.97
2018-12-10T21:28:56.531Z,6.57
2018-12-10T21:31:25.598Z,7.60
2018-12-10T21:33:54.641Z,6.80
2018-12-10T21:36:23.737Z,7.03
2018-12-10T21:38:52.802Z,6.40
2018-12-10T21:41:21.851Z,7.87
2018-12-10T21:43:50.928Z,6.47
2018-12-10T21:46:20.955Z,6.37
2018-12-10T21:48:50.021Z,9.10
2018-12-10T21:51:19.189Z,8.00
2018-12-10T21:53:48.243Z,7.70
2018-12-10T21:56:17.336Z,7.20
2018-12-10T21:58:46.414Z,7.20
2018-12-10T22:01:15.460Z,8.60
2018-12-10T22:03:44.518Z,8.63
2018-12-10T22:06:13.586Z,6.00
2018-12-10T22:08:42.629Z,4.70
2018-12-10T22:11:11.685Z,6.80
2018-12-10T22:13:40.779Z,6.50
2018-12-10T22:16:09.826Z,4.80
2018-12-10T22:18:38.887Z,5.50
2018-12-10T22:21:08.046Z,5.70
2018-12-10T22:23:37.123Z,4.80
2018-12-10T22:26:06.171Z,4.90
2018-12-10T22:28:35.244Z,4.60
2018-12-10T22:31:04.309Z,3.67
2018-12-10T22:33:33.355Z,3.67
2018-12-10T22:36:02.495Z,4.23
2018-12-10T22:38:31.548Z,4.80
2018-12-10T22:41:00.600Z,4.27
2018-12-10T22:43:29.677Z,5.23
2018-12-10T22:46:15.227Z,4.27
2018-12-10T22:48:44.294Z,5.13
2018-12-10T22:51:13.345Z,4.63
2018-12-10T22:53:42.412Z,6.03
2018-12-10T22:56:11.595Z,6.83
2018-12-10T22:58:40.649Z,7.37
2018-12-10T23:01:09.707Z,8.33
2018-12-10T23:03:38.802Z,7.47
2018-12-10T23:06:07.852Z,8.40
2018-12-10T23:08:36.896Z,7.73
2018-12-10T23:11:05.974Z,7.87
2018-12-10T23:13:35.032Z,6.97
2018-12-10T23:16:04.093Z,6.27
2018-12-10T23:18:33.197Z,6.73
2018-12-10T23:21:02.231Z,4.70
2018-12-10T23:23:31.279Z,4.30
2018-12-10T23:26:00.360Z,4.53
2018-12-10T23:28:29.417Z,4.00
2018-12-10T23:30:58.462Z,4.37
2018-12-10T23:33:27.546Z,3.67
2018-12-10T23:35:56.588Z,3.87
2018-12-10T23:38:25.641Z,3.63
2018-12-10T23:40:54.756Z,3.57
2018-12-10T23:43:24.785Z,4.80
2018-12-10T23:46:14.331Z,6.87
2018-12-10T23:48:43.383Z,5.33
2018-12-10T23:51:12.444Z,5.67
2018-12-10T23:53:41.513Z,6.07
2018-12-10T23:56:10.564Z,5.50
2018-12-10T23:58:39.617Z,5.17
